<?xml version="1.0"?>
<gpx xmlns="http://www.topografix.com/GPX/1/1" version="1.1" creator="afstandmeten.nl" xmlns:xsi="http://www.w3.org/2001/XMLSchema-instance" xsi:schemaLocation="http://www.topografix.com/GPX/1/1 http://www.topografix.com/GPX/1/1/gpx.xsd">
  <trk>
    <name>langres-Arc</name>
    <desc></desc>
    <trkseg>
      <trkpt lat="47.859327" lon="5.3331872">
        <time>2015-05-13T00:00:00Z</time>
      </trkpt>
      <trkpt lat="47.8592" lon="5.33318">
        <time>2015-05-13T00:00:02Z</time>
      </trkpt>
      <trkpt lat="47.85911" lon="5.33306">
        <time>2015-05-13T00:00:03Z</time>
      </trkpt>
      <trkpt lat="47.85918" lon="5.33296">
        <time>2015-05-13T00:00:04Z</time>
      </trkpt>
      <trkpt lat="47.85928" lon="5.33259">
        <time>2015-05-13T00:00:08Z</time>
      </trkpt>
      <trkpt lat="47.85936" lon="5.33222">
        <time>2015-05-13T00:00:10Z</time>
      </trkpt>
      <trkpt lat="47.85949" lon="5.33146">
        <time>2015-05-13T00:00:17Z</time>
      </trkpt>
      <trkpt lat="47.8596" lon="5.33101">
        <time>2015-05-13T00:00:20Z</time>
      </trkpt>
      <trkpt lat="47.85973" lon="5.33068">
        <time>2015-05-13T00:00:23Z</time>
      </trkpt>
      <trkpt lat="47.85985" lon="5.33044">
        <time>2015-05-13T00:00:25Z</time>
      </trkpt>
      <trkpt lat="47.85998" lon="5.33027">
        <time>2015-05-13T00:00:27Z</time>
      </trkpt>
      <trkpt lat="47.86008" lon="5.33019">
        <time>2015-05-13T00:00:29Z</time>
      </trkpt>
      <trkpt lat="47.86018" lon="5.33014">
        <time>2015-05-13T00:00:30Z</time>
      </trkpt>
      <trkpt lat="47.86036" lon="5.33014">
        <time>2015-05-13T00:00:32Z</time>
      </trkpt>
      <trkpt lat="47.86054" lon="5.33015">
        <time>2015-05-13T00:00:34Z</time>
      </trkpt>
      <trkpt lat="47.86073" lon="5.33023">
        <time>2015-05-13T00:00:36Z</time>
      </trkpt>
      <trkpt lat="47.86126" lon="5.33043">
        <time>2015-05-13T00:00:43Z</time>
      </trkpt>
      <trkpt lat="47.86145" lon="5.33047">
        <time>2015-05-13T00:00:45Z</time>
      </trkpt>
      <trkpt lat="47.86248" lon="5.3307">
        <time>2015-05-13T00:00:57Z</time>
      </trkpt>
      <trkpt lat="47.86257" lon="5.33066">
        <time>2015-05-13T00:00:58Z</time>
      </trkpt>
      <trkpt lat="47.86283" lon="5.33063">
        <time>2015-05-13T00:01:01Z</time>
      </trkpt>
      <trkpt lat="47.86282" lon="5.33045">
        <time>2015-05-13T00:01:02Z</time>
      </trkpt>
      <trkpt lat="47.86281" lon="5.33032">
        <time>2015-05-13T00:01:03Z</time>
      </trkpt>
      <trkpt lat="47.86286" lon="5.33033">
        <time>2015-05-13T00:01:04Z</time>
      </trkpt>
      <trkpt lat="47.86298" lon="5.33031">
        <time>2015-05-13T00:01:05Z</time>
      </trkpt>
      <trkpt lat="47.86334" lon="5.33029">
        <time>2015-05-13T00:01:09Z</time>
      </trkpt>
      <trkpt lat="47.86376" lon="5.33025">
        <time>2015-05-13T00:01:14Z</time>
      </trkpt>
      <trkpt lat="47.86406" lon="5.33022">
        <time>2015-05-13T00:01:17Z</time>
      </trkpt>
      <trkpt lat="47.8647" lon="5.33012">
        <time>2015-05-13T00:01:25Z</time>
      </trkpt>
      <trkpt lat="47.86597" lon="5.32982">
        <time>2015-05-13T00:01:40Z</time>
      </trkpt>
      <trkpt lat="47.86631" lon="5.32973">
        <time>2015-05-13T00:01:44Z</time>
      </trkpt>
      <trkpt lat="47.86652" lon="5.32968">
        <time>2015-05-13T00:01:46Z</time>
      </trkpt>
      <trkpt lat="47.86651" lon="5.32964">
        <time>2015-05-13T00:01:46Z</time>
      </trkpt>
      <trkpt lat="47.86649" lon="5.32962">
        <time>2015-05-13T00:01:47Z</time>
      </trkpt>
      <trkpt lat="47.86639" lon="5.32961">
        <time>2015-05-13T00:01:48Z</time>
      </trkpt>
      <trkpt lat="47.86628" lon="5.32962">
        <time>2015-05-13T00:01:49Z</time>
      </trkpt>
      <trkpt lat="47.86624" lon="5.32959">
        <time>2015-05-13T00:01:50Z</time>
      </trkpt>
      <trkpt lat="47.86628" lon="5.32957">
        <time>2015-05-13T00:01:50Z</time>
      </trkpt>
      <trkpt lat="47.86652" lon="5.32945">
        <time>2015-05-13T00:01:53Z</time>
      </trkpt>
      <trkpt lat="47.86701" lon="5.32915">
        <time>2015-05-13T00:01:59Z</time>
      </trkpt>
      <trkpt lat="47.86741" lon="5.32894">
        <time>2015-05-13T00:02:04Z</time>
      </trkpt>
      <trkpt lat="47.86762" lon="5.32884">
        <time>2015-05-13T00:02:06Z</time>
      </trkpt>
      <trkpt lat="47.86785" lon="5.32876">
        <time>2015-05-13T00:02:09Z</time>
      </trkpt>
      <trkpt lat="47.86818" lon="5.32866">
        <time>2015-05-13T00:02:13Z</time>
      </trkpt>
      <trkpt lat="47.86864" lon="5.32849">
        <time>2015-05-13T00:02:18Z</time>
      </trkpt>
      <trkpt lat="47.86928" lon="5.32824">
        <time>2015-05-13T00:02:26Z</time>
      </trkpt>
      <trkpt lat="47.86981" lon="5.32801">
        <time>2015-05-13T00:02:32Z</time>
      </trkpt>
      <trkpt lat="47.87015" lon="5.3278">
        <time>2015-05-13T00:02:36Z</time>
      </trkpt>
      <trkpt lat="47.87021" lon="5.32779">
        <time>2015-05-13T00:02:37Z</time>
      </trkpt>
      <trkpt lat="47.87027" lon="5.32782">
        <time>2015-05-13T00:02:38Z</time>
      </trkpt>
      <trkpt lat="47.87039" lon="5.3276">
        <time>2015-05-13T00:02:40Z</time>
      </trkpt>
      <trkpt lat="47.87067" lon="5.32724">
        <time>2015-05-13T00:02:44Z</time>
      </trkpt>
      <trkpt lat="47.87076" lon="5.32717">
        <time>2015-05-13T00:02:45Z</time>
      </trkpt>
      <trkpt lat="47.87112" lon="5.32677">
        <time>2015-05-13T00:02:51Z</time>
      </trkpt>
      <trkpt lat="47.87119" lon="5.32669">
        <time>2015-05-13T00:02:52Z</time>
      </trkpt>
      <trkpt lat="47.87156" lon="5.32631">
        <time>2015-05-13T00:02:57Z</time>
      </trkpt>
      <trkpt lat="47.87169" lon="5.326">
        <time>2015-05-13T00:03:00Z</time>
      </trkpt>
      <trkpt lat="47.87168" lon="5.32593">
        <time>2015-05-13T00:03:00Z</time>
      </trkpt>
      <trkpt lat="47.87168" lon="5.32586">
        <time>2015-05-13T00:03:01Z</time>
      </trkpt>
      <trkpt lat="47.87167" lon="5.32576">
        <time>2015-05-13T00:03:01Z</time>
      </trkpt>
      <trkpt lat="47.87164" lon="5.32563">
        <time>2015-05-13T00:03:02Z</time>
      </trkpt>
      <trkpt lat="47.87156" lon="5.32554">
        <time>2015-05-13T00:03:04Z</time>
      </trkpt>
      <trkpt lat="47.87151" lon="5.32551">
        <time>2015-05-13T00:03:04Z</time>
      </trkpt>
      <trkpt lat="47.8714" lon="5.32545">
        <time>2015-05-13T00:03:06Z</time>
      </trkpt>
      <trkpt lat="47.87112" lon="5.3256">
        <time>2015-05-13T00:03:09Z</time>
      </trkpt>
      <trkpt lat="47.87094" lon="5.32568">
        <time>2015-05-13T00:03:11Z</time>
      </trkpt>
      <trkpt lat="47.87049" lon="5.32558">
        <time>2015-05-13T00:03:16Z</time>
      </trkpt>
      <trkpt lat="47.87026" lon="5.32552">
        <time>2015-05-13T00:03:19Z</time>
      </trkpt>
      <trkpt lat="47.87015" lon="5.32544">
        <time>2015-05-13T00:03:20Z</time>
      </trkpt>
      <trkpt lat="47.87" lon="5.3253">
        <time>2015-05-13T00:03:22Z</time>
      </trkpt>
      <trkpt lat="47.86986" lon="5.32518">
        <time>2015-05-13T00:03:24Z</time>
      </trkpt>
      <trkpt lat="47.86972" lon="5.32512">
        <time>2015-05-13T00:03:26Z</time>
      </trkpt>
      <trkpt lat="47.86946" lon="5.32509">
        <time>2015-05-13T00:03:29Z</time>
      </trkpt>
      <trkpt lat="47.86932" lon="5.3251">
        <time>2015-05-13T00:03:31Z</time>
      </trkpt>
      <trkpt lat="47.8692" lon="5.32505">
        <time>2015-05-13T00:03:32Z</time>
      </trkpt>
      <trkpt lat="47.8691" lon="5.32496">
        <time>2015-05-13T00:03:33Z</time>
      </trkpt>
      <trkpt lat="47.86902" lon="5.3248">
        <time>2015-05-13T00:03:35Z</time>
      </trkpt>
      <trkpt lat="47.86899" lon="5.32452">
        <time>2015-05-13T00:03:37Z</time>
      </trkpt>
      <trkpt lat="47.86915" lon="5.32379">
        <time>2015-05-13T00:03:43Z</time>
      </trkpt>
      <trkpt lat="47.86937" lon="5.32301">
        <time>2015-05-13T00:03:49Z</time>
      </trkpt>
      <trkpt lat="47.86954" lon="5.32272">
        <time>2015-05-13T00:03:52Z</time>
      </trkpt>
      <trkpt lat="47.86965" lon="5.32262">
        <time>2015-05-13T00:03:54Z</time>
      </trkpt>
      <trkpt lat="47.86981" lon="5.32254">
        <time>2015-05-13T00:03:56Z</time>
      </trkpt>
      <trkpt lat="47.86981" lon="5.32254">
        <time>2015-05-13T00:03:56Z</time>
      </trkpt>
      <trkpt lat="47.87001" lon="5.32242">
        <time>2015-05-13T00:03:58Z</time>
      </trkpt>
      <trkpt lat="47.87013" lon="5.32227">
        <time>2015-05-13T00:04:00Z</time>
      </trkpt>
      <trkpt lat="47.87021" lon="5.32202">
        <time>2015-05-13T00:04:02Z</time>
      </trkpt>
      <trkpt lat="47.87024" lon="5.3218">
        <time>2015-05-13T00:04:04Z</time>
      </trkpt>
      <trkpt lat="47.87024" lon="5.32156">
        <time>2015-05-13T00:04:06Z</time>
      </trkpt>
      <trkpt lat="47.87018" lon="5.32094">
        <time>2015-05-13T00:04:11Z</time>
      </trkpt>
      <trkpt lat="47.87006" lon="5.31963">
        <time>2015-05-13T00:04:21Z</time>
      </trkpt>
      <trkpt lat="47.86993" lon="5.31874">
        <time>2015-05-13T00:04:28Z</time>
      </trkpt>
      <trkpt lat="47.86985" lon="5.31833">
        <time>2015-05-13T00:04:31Z</time>
      </trkpt>
      <trkpt lat="47.86969" lon="5.31758">
        <time>2015-05-13T00:04:37Z</time>
      </trkpt>
      <trkpt lat="47.86951" lon="5.31688">
        <time>2015-05-13T00:04:43Z</time>
      </trkpt>
      <trkpt lat="47.86941" lon="5.31646">
        <time>2015-05-13T00:04:46Z</time>
      </trkpt>
      <trkpt lat="47.86941" lon="5.31624">
        <time>2015-05-13T00:04:48Z</time>
      </trkpt>
      <trkpt lat="47.86942" lon="5.31602">
        <time>2015-05-13T00:04:50Z</time>
      </trkpt>
      <trkpt lat="47.86948" lon="5.31572">
        <time>2015-05-13T00:04:52Z</time>
      </trkpt>
      <trkpt lat="47.86962" lon="5.31541">
        <time>2015-05-13T00:04:55Z</time>
      </trkpt>
      <trkpt lat="47.87005" lon="5.31485">
        <time>2015-05-13T00:05:01Z</time>
      </trkpt>
      <trkpt lat="47.87047" lon="5.31426">
        <time>2015-05-13T00:05:08Z</time>
      </trkpt>
      <trkpt lat="47.87072" lon="5.31375">
        <time>2015-05-13T00:05:13Z</time>
      </trkpt>
      <trkpt lat="47.871" lon="5.31303">
        <time>2015-05-13T00:05:19Z</time>
      </trkpt>
      <trkpt lat="47.87124" lon="5.31213">
        <time>2015-05-13T00:05:27Z</time>
      </trkpt>
      <trkpt lat="47.87168" lon="5.31045">
        <time>2015-05-13T00:05:41Z</time>
      </trkpt>
      <trkpt lat="47.87178" lon="5.31">
        <time>2015-05-13T00:05:44Z</time>
      </trkpt>
      <trkpt lat="47.87178" lon="5.30941">
        <time>2015-05-13T00:05:49Z</time>
      </trkpt>
      <trkpt lat="47.87171" lon="5.30873">
        <time>2015-05-13T00:05:54Z</time>
      </trkpt>
      <trkpt lat="47.87159" lon="5.308">
        <time>2015-05-13T00:06:00Z</time>
      </trkpt>
      <trkpt lat="47.8716" lon="5.30796">
        <time>2015-05-13T00:06:00Z</time>
      </trkpt>
      <trkpt lat="47.8716" lon="5.30788">
        <time>2015-05-13T00:06:01Z</time>
      </trkpt>
      <trkpt lat="47.87137" lon="5.3068">
        <time>2015-05-13T00:06:09Z</time>
      </trkpt>
      <trkpt lat="47.87113" lon="5.30604">
        <time>2015-05-13T00:06:16Z</time>
      </trkpt>
      <trkpt lat="47.87079" lon="5.30509">
        <time>2015-05-13T00:06:24Z</time>
      </trkpt>
      <trkpt lat="47.87039" lon="5.30385">
        <time>2015-05-13T00:06:35Z</time>
      </trkpt>
      <trkpt lat="47.87017" lon="5.30343">
        <time>2015-05-13T00:06:39Z</time>
      </trkpt>
      <trkpt lat="47.87" lon="5.30302">
        <time>2015-05-13T00:06:42Z</time>
      </trkpt>
      <trkpt lat="47.86993" lon="5.30265">
        <time>2015-05-13T00:06:45Z</time>
      </trkpt>
      <trkpt lat="47.86994" lon="5.30226">
        <time>2015-05-13T00:06:48Z</time>
      </trkpt>
      <trkpt lat="47.87017" lon="5.30141">
        <time>2015-05-13T00:06:55Z</time>
      </trkpt>
      <trkpt lat="47.87046" lon="5.3006">
        <time>2015-05-13T00:07:03Z</time>
      </trkpt>
      <trkpt lat="47.87053" lon="5.30036">
        <time>2015-05-13T00:07:05Z</time>
      </trkpt>
      <trkpt lat="47.87054" lon="5.30019">
        <time>2015-05-13T00:07:06Z</time>
      </trkpt>
      <trkpt lat="47.87052" lon="5.2992">
        <time>2015-05-13T00:07:13Z</time>
      </trkpt>
      <trkpt lat="47.8705" lon="5.2991">
        <time>2015-05-13T00:07:14Z</time>
      </trkpt>
      <trkpt lat="47.87059" lon="5.29882">
        <time>2015-05-13T00:07:17Z</time>
      </trkpt>
      <trkpt lat="47.87072" lon="5.29842">
        <time>2015-05-13T00:07:20Z</time>
      </trkpt>
      <trkpt lat="47.87077" lon="5.29812">
        <time>2015-05-13T00:07:22Z</time>
      </trkpt>
      <trkpt lat="47.87096" lon="5.29651">
        <time>2015-05-13T00:07:35Z</time>
      </trkpt>
      <trkpt lat="47.87119" lon="5.29466">
        <time>2015-05-13T00:07:49Z</time>
      </trkpt>
      <trkpt lat="47.87124" lon="5.29415">
        <time>2015-05-13T00:07:53Z</time>
      </trkpt>
      <trkpt lat="47.8712" lon="5.29356">
        <time>2015-05-13T00:07:58Z</time>
      </trkpt>
      <trkpt lat="47.87112" lon="5.29282">
        <time>2015-05-13T00:08:04Z</time>
      </trkpt>
      <trkpt lat="47.87101" lon="5.29219">
        <time>2015-05-13T00:08:09Z</time>
      </trkpt>
      <trkpt lat="47.87088" lon="5.29174">
        <time>2015-05-13T00:08:12Z</time>
      </trkpt>
      <trkpt lat="47.87072" lon="5.29132">
        <time>2015-05-13T00:08:16Z</time>
      </trkpt>
      <trkpt lat="47.87021" lon="5.29014">
        <time>2015-05-13T00:08:27Z</time>
      </trkpt>
      <trkpt lat="47.87004" lon="5.28973">
        <time>2015-05-13T00:08:31Z</time>
      </trkpt>
      <trkpt lat="47.86986" lon="5.28941">
        <time>2015-05-13T00:08:34Z</time>
      </trkpt>
      <trkpt lat="47.86956" lon="5.28888">
        <time>2015-05-13T00:08:39Z</time>
      </trkpt>
      <trkpt lat="47.86946" lon="5.28859">
        <time>2015-05-13T00:08:42Z</time>
      </trkpt>
      <trkpt lat="47.8691" lon="5.28726">
        <time>2015-05-13T00:08:53Z</time>
      </trkpt>
      <trkpt lat="47.86882" lon="5.28626">
        <time>2015-05-13T00:09:01Z</time>
      </trkpt>
      <trkpt lat="47.86865" lon="5.2855">
        <time>2015-05-13T00:09:07Z</time>
      </trkpt>
      <trkpt lat="47.86835" lon="5.28435">
        <time>2015-05-13T00:09:17Z</time>
      </trkpt>
      <trkpt lat="47.86829" lon="5.28404">
        <time>2015-05-13T00:09:19Z</time>
      </trkpt>
      <trkpt lat="47.86827" lon="5.28367">
        <time>2015-05-13T00:09:22Z</time>
      </trkpt>
      <trkpt lat="47.86826" lon="5.28305">
        <time>2015-05-13T00:09:27Z</time>
      </trkpt>
      <trkpt lat="47.86821" lon="5.28258">
        <time>2015-05-13T00:09:30Z</time>
      </trkpt>
      <trkpt lat="47.86812" lon="5.28215">
        <time>2015-05-13T00:09:34Z</time>
      </trkpt>
      <trkpt lat="47.868" lon="5.28177">
        <time>2015-05-13T00:09:37Z</time>
      </trkpt>
      <trkpt lat="47.86774" lon="5.28119">
        <time>2015-05-13T00:09:42Z</time>
      </trkpt>
      <trkpt lat="47.86762" lon="5.28081">
        <time>2015-05-13T00:09:46Z</time>
      </trkpt>
      <trkpt lat="47.86744" lon="5.28013">
        <time>2015-05-13T00:09:51Z</time>
      </trkpt>
      <trkpt lat="47.86732" lon="5.27981">
        <time>2015-05-13T00:09:54Z</time>
      </trkpt>
      <trkpt lat="47.86711" lon="5.27936">
        <time>2015-05-13T00:09:58Z</time>
      </trkpt>
      <trkpt lat="47.86692" lon="5.27903">
        <time>2015-05-13T00:10:02Z</time>
      </trkpt>
      <trkpt lat="47.86618" lon="5.27785">
        <time>2015-05-13T00:10:14Z</time>
      </trkpt>
      <trkpt lat="47.86605" lon="5.27763">
        <time>2015-05-13T00:10:16Z</time>
      </trkpt>
      <trkpt lat="47.86605" lon="5.27763">
        <time>2015-05-13T00:10:16Z</time>
      </trkpt>
      <trkpt lat="47.86528" lon="5.27642">
        <time>2015-05-13T00:10:29Z</time>
      </trkpt>
      <trkpt lat="47.86509" lon="5.27613">
        <time>2015-05-13T00:10:32Z</time>
      </trkpt>
      <trkpt lat="47.86479" lon="5.27558">
        <time>2015-05-13T00:10:38Z</time>
      </trkpt>
      <trkpt lat="47.8647" lon="5.27535">
        <time>2015-05-13T00:10:40Z</time>
      </trkpt>
      <trkpt lat="47.86453" lon="5.27478">
        <time>2015-05-13T00:10:45Z</time>
      </trkpt>
      <trkpt lat="47.86445" lon="5.27459">
        <time>2015-05-13T00:10:46Z</time>
      </trkpt>
      <trkpt lat="47.86435" lon="5.27442">
        <time>2015-05-13T00:10:48Z</time>
      </trkpt>
      <trkpt lat="47.86426" lon="5.27432">
        <time>2015-05-13T00:10:49Z</time>
      </trkpt>
      <trkpt lat="47.8641" lon="5.2742">
        <time>2015-05-13T00:10:51Z</time>
      </trkpt>
      <trkpt lat="47.86281" lon="5.27355">
        <time>2015-05-13T00:11:07Z</time>
      </trkpt>
      <trkpt lat="47.86255" lon="5.27334">
        <time>2015-05-13T00:11:10Z</time>
      </trkpt>
      <trkpt lat="47.86248" lon="5.27314">
        <time>2015-05-13T00:11:12Z</time>
      </trkpt>
      <trkpt lat="47.8623" lon="5.27249">
        <time>2015-05-13T00:11:17Z</time>
      </trkpt>
      <trkpt lat="47.86219" lon="5.27205">
        <time>2015-05-13T00:11:21Z</time>
      </trkpt>
      <trkpt lat="47.86211" lon="5.27168">
        <time>2015-05-13T00:11:24Z</time>
      </trkpt>
      <trkpt lat="47.86214" lon="5.27123">
        <time>2015-05-13T00:11:28Z</time>
      </trkpt>
      <trkpt lat="47.86218" lon="5.27102">
        <time>2015-05-13T00:11:29Z</time>
      </trkpt>
      <trkpt lat="47.86218" lon="5.27102">
        <time>2015-05-13T00:11:29Z</time>
      </trkpt>
      <trkpt lat="47.86222" lon="5.27085">
        <time>2015-05-13T00:11:31Z</time>
      </trkpt>
      <trkpt lat="47.86233" lon="5.27053">
        <time>2015-05-13T00:11:33Z</time>
      </trkpt>
      <trkpt lat="47.86247" lon="5.27026">
        <time>2015-05-13T00:11:36Z</time>
      </trkpt>
      <trkpt lat="47.86261" lon="5.27004">
        <time>2015-05-13T00:11:38Z</time>
      </trkpt>
      <trkpt lat="47.86281" lon="5.26983">
        <time>2015-05-13T00:11:41Z</time>
      </trkpt>
      <trkpt lat="47.86291" lon="5.26974">
        <time>2015-05-13T00:11:42Z</time>
      </trkpt>
      <trkpt lat="47.86308" lon="5.26959">
        <time>2015-05-13T00:11:45Z</time>
      </trkpt>
      <trkpt lat="47.86321" lon="5.26942">
        <time>2015-05-13T00:11:47Z</time>
      </trkpt>
      <trkpt lat="47.86341" lon="5.26917">
        <time>2015-05-13T00:11:50Z</time>
      </trkpt>
      <trkpt lat="47.86357" lon="5.26909">
        <time>2015-05-13T00:11:52Z</time>
      </trkpt>
      <trkpt lat="47.86399" lon="5.26896">
        <time>2015-05-13T00:11:57Z</time>
      </trkpt>
      <trkpt lat="47.86438" lon="5.26878">
        <time>2015-05-13T00:12:01Z</time>
      </trkpt>
      <trkpt lat="47.86455" lon="5.26867">
        <time>2015-05-13T00:12:03Z</time>
      </trkpt>
      <trkpt lat="47.86478" lon="5.26858">
        <time>2015-05-13T00:12:06Z</time>
      </trkpt>
      <trkpt lat="47.86536" lon="5.2683">
        <time>2015-05-13T00:12:13Z</time>
      </trkpt>
      <trkpt lat="47.86606" lon="5.26794">
        <time>2015-05-13T00:12:21Z</time>
      </trkpt>
      <trkpt lat="47.86645" lon="5.26758">
        <time>2015-05-13T00:12:27Z</time>
      </trkpt>
      <trkpt lat="47.86665" lon="5.26739">
        <time>2015-05-13T00:12:29Z</time>
      </trkpt>
      <trkpt lat="47.86684" lon="5.26715">
        <time>2015-05-13T00:12:32Z</time>
      </trkpt>
      <trkpt lat="47.86708" lon="5.26686">
        <time>2015-05-13T00:12:36Z</time>
      </trkpt>
      <trkpt lat="47.86735" lon="5.26658">
        <time>2015-05-13T00:12:40Z</time>
      </trkpt>
      <trkpt lat="47.86754" lon="5.2664">
        <time>2015-05-13T00:12:42Z</time>
      </trkpt>
      <trkpt lat="47.86768" lon="5.26614">
        <time>2015-05-13T00:12:45Z</time>
      </trkpt>
      <trkpt lat="47.86775" lon="5.26596">
        <time>2015-05-13T00:12:46Z</time>
      </trkpt>
      <trkpt lat="47.86777" lon="5.26582">
        <time>2015-05-13T00:12:47Z</time>
      </trkpt>
      <trkpt lat="47.86774" lon="5.26575">
        <time>2015-05-13T00:12:48Z</time>
      </trkpt>
      <trkpt lat="47.86774" lon="5.26575">
        <time>2015-05-13T00:12:48Z</time>
      </trkpt>
      <trkpt lat="47.86771" lon="5.26571">
        <time>2015-05-13T00:12:49Z</time>
      </trkpt>
      <trkpt lat="47.86762" lon="5.26567">
        <time>2015-05-13T00:12:50Z</time>
      </trkpt>
      <trkpt lat="47.86747" lon="5.26568">
        <time>2015-05-13T00:12:51Z</time>
      </trkpt>
      <trkpt lat="47.86724" lon="5.26574">
        <time>2015-05-13T00:12:54Z</time>
      </trkpt>
      <trkpt lat="47.86694" lon="5.26581">
        <time>2015-05-13T00:12:58Z</time>
      </trkpt>
      <trkpt lat="47.86649" lon="5.26582">
        <time>2015-05-13T00:13:03Z</time>
      </trkpt>
      <trkpt lat="47.86575" lon="5.26576">
        <time>2015-05-13T00:13:11Z</time>
      </trkpt>
      <trkpt lat="47.86501" lon="5.26568">
        <time>2015-05-13T00:13:20Z</time>
      </trkpt>
      <trkpt lat="47.86481" lon="5.26568">
        <time>2015-05-13T00:13:22Z</time>
      </trkpt>
      <trkpt lat="47.86458" lon="5.26572">
        <time>2015-05-13T00:13:25Z</time>
      </trkpt>
      <trkpt lat="47.86426" lon="5.26581">
        <time>2015-05-13T00:13:28Z</time>
      </trkpt>
      <trkpt lat="47.86411" lon="5.26581">
        <time>2015-05-13T00:13:30Z</time>
      </trkpt>
      <trkpt lat="47.86398" lon="5.26575">
        <time>2015-05-13T00:13:32Z</time>
      </trkpt>
      <trkpt lat="47.86391" lon="5.26568">
        <time>2015-05-13T00:13:33Z</time>
      </trkpt>
      <trkpt lat="47.86384" lon="5.26554">
        <time>2015-05-13T00:13:34Z</time>
      </trkpt>
      <trkpt lat="47.86369" lon="5.26485">
        <time>2015-05-13T00:13:39Z</time>
      </trkpt>
      <trkpt lat="47.86341" lon="5.2637">
        <time>2015-05-13T00:13:49Z</time>
      </trkpt>
      <trkpt lat="47.86331" lon="5.26348">
        <time>2015-05-13T00:13:51Z</time>
      </trkpt>
      <trkpt lat="47.86318" lon="5.26329">
        <time>2015-05-13T00:13:53Z</time>
      </trkpt>
      <trkpt lat="47.86313" lon="5.26324">
        <time>2015-05-13T00:13:54Z</time>
      </trkpt>
      <trkpt lat="47.86294" lon="5.26309">
        <time>2015-05-13T00:13:56Z</time>
      </trkpt>
      <trkpt lat="47.86274" lon="5.26301">
        <time>2015-05-13T00:13:59Z</time>
      </trkpt>
      <trkpt lat="47.86244" lon="5.26295">
        <time>2015-05-13T00:14:02Z</time>
      </trkpt>
      <trkpt lat="47.86201" lon="5.26273">
        <time>2015-05-13T00:14:07Z</time>
      </trkpt>
      <trkpt lat="47.8618" lon="5.26256">
        <time>2015-05-13T00:14:10Z</time>
      </trkpt>
      <trkpt lat="47.86157" lon="5.26234">
        <time>2015-05-13T00:14:13Z</time>
      </trkpt>
      <trkpt lat="47.8613" lon="5.26202">
        <time>2015-05-13T00:14:17Z</time>
      </trkpt>
      <trkpt lat="47.86105" lon="5.26163">
        <time>2015-05-13T00:14:21Z</time>
      </trkpt>
      <trkpt lat="47.86074" lon="5.26107">
        <time>2015-05-13T00:14:27Z</time>
      </trkpt>
      <trkpt lat="47.86046" lon="5.26062">
        <time>2015-05-13T00:14:31Z</time>
      </trkpt>
      <trkpt lat="47.86046" lon="5.26062">
        <time>2015-05-13T00:14:31Z</time>
      </trkpt>
      <trkpt lat="47.86012" lon="5.26008">
        <time>2015-05-13T00:14:37Z</time>
      </trkpt>
      <trkpt lat="47.85985" lon="5.25959">
        <time>2015-05-13T00:14:42Z</time>
      </trkpt>
      <trkpt lat="47.85943" lon="5.25889">
        <time>2015-05-13T00:14:49Z</time>
      </trkpt>
      <trkpt lat="47.85919" lon="5.25864">
        <time>2015-05-13T00:14:53Z</time>
      </trkpt>
      <trkpt lat="47.85852" lon="5.25829">
        <time>2015-05-13T00:15:01Z</time>
      </trkpt>
      <trkpt lat="47.85772" lon="5.25787">
        <time>2015-05-13T00:15:10Z</time>
      </trkpt>
      <trkpt lat="47.8575" lon="5.25773">
        <time>2015-05-13T00:15:13Z</time>
      </trkpt>
      <trkpt lat="47.85736" lon="5.2576">
        <time>2015-05-13T00:15:15Z</time>
      </trkpt>
      <trkpt lat="47.85713" lon="5.25729">
        <time>2015-05-13T00:15:19Z</time>
      </trkpt>
      <trkpt lat="47.85683" lon="5.25689">
        <time>2015-05-13T00:15:23Z</time>
      </trkpt>
      <trkpt lat="47.8566" lon="5.2565">
        <time>2015-05-13T00:15:27Z</time>
      </trkpt>
      <trkpt lat="47.85647" lon="5.25615">
        <time>2015-05-13T00:15:30Z</time>
      </trkpt>
      <trkpt lat="47.85642" lon="5.25596">
        <time>2015-05-13T00:15:32Z</time>
      </trkpt>
      <trkpt lat="47.85641" lon="5.25578">
        <time>2015-05-13T00:15:33Z</time>
      </trkpt>
      <trkpt lat="47.85641" lon="5.25557">
        <time>2015-05-13T00:15:35Z</time>
      </trkpt>
      <trkpt lat="47.85644" lon="5.25536">
        <time>2015-05-13T00:15:36Z</time>
      </trkpt>
      <trkpt lat="47.85718" lon="5.25186">
        <time>2015-05-13T00:16:05Z</time>
      </trkpt>
      <trkpt lat="47.85731" lon="5.25119">
        <time>2015-05-13T00:16:10Z</time>
      </trkpt>
      <trkpt lat="47.85734" lon="5.25085">
        <time>2015-05-13T00:16:13Z</time>
      </trkpt>
      <trkpt lat="47.85735" lon="5.25047">
        <time>2015-05-13T00:16:16Z</time>
      </trkpt>
      <trkpt lat="47.85727" lon="5.24877">
        <time>2015-05-13T00:16:29Z</time>
      </trkpt>
      <trkpt lat="47.85717" lon="5.24656">
        <time>2015-05-13T00:16:46Z</time>
      </trkpt>
      <trkpt lat="47.85713" lon="5.24529">
        <time>2015-05-13T00:16:55Z</time>
      </trkpt>
      <trkpt lat="47.85716" lon="5.24476">
        <time>2015-05-13T00:17:00Z</time>
      </trkpt>
      <trkpt lat="47.85731" lon="5.24395">
        <time>2015-05-13T00:17:06Z</time>
      </trkpt>
      <trkpt lat="47.85826" lon="5.23827">
        <time>2015-05-13T00:17:51Z</time>
      </trkpt>
      <trkpt lat="47.85839" lon="5.23753">
        <time>2015-05-13T00:17:57Z</time>
      </trkpt>
      <trkpt lat="47.85845" lon="5.23713">
        <time>2015-05-13T00:18:00Z</time>
      </trkpt>
      <trkpt lat="47.85846" lon="5.23687">
        <time>2015-05-13T00:18:02Z</time>
      </trkpt>
      <trkpt lat="47.85845" lon="5.23665">
        <time>2015-05-13T00:18:04Z</time>
      </trkpt>
      <trkpt lat="47.85838" lon="5.23606">
        <time>2015-05-13T00:18:08Z</time>
      </trkpt>
      <trkpt lat="47.85834" lon="5.23569">
        <time>2015-05-13T00:18:11Z</time>
      </trkpt>
      <trkpt lat="47.85825" lon="5.23497">
        <time>2015-05-13T00:18:17Z</time>
      </trkpt>
      <trkpt lat="47.85825" lon="5.23468">
        <time>2015-05-13T00:18:19Z</time>
      </trkpt>
      <trkpt lat="47.8583" lon="5.23403">
        <time>2015-05-13T00:18:24Z</time>
      </trkpt>
      <trkpt lat="47.85847" lon="5.23244">
        <time>2015-05-13T00:18:36Z</time>
      </trkpt>
      <trkpt lat="47.8585" lon="5.23202">
        <time>2015-05-13T00:18:40Z</time>
      </trkpt>
      <trkpt lat="47.85851" lon="5.23133">
        <time>2015-05-13T00:18:45Z</time>
      </trkpt>
      <trkpt lat="47.85844" lon="5.22917">
        <time>2015-05-13T00:19:02Z</time>
      </trkpt>
      <trkpt lat="47.85842" lon="5.228">
        <time>2015-05-13T00:19:11Z</time>
      </trkpt>
      <trkpt lat="47.85851" lon="5.22636">
        <time>2015-05-13T00:19:23Z</time>
      </trkpt>
      <trkpt lat="47.85854" lon="5.22573">
        <time>2015-05-13T00:19:28Z</time>
      </trkpt>
      <trkpt lat="47.85855" lon="5.22539">
        <time>2015-05-13T00:19:31Z</time>
      </trkpt>
      <trkpt lat="47.85859" lon="5.22498">
        <time>2015-05-13T00:19:34Z</time>
      </trkpt>
      <trkpt lat="47.85865" lon="5.22469">
        <time>2015-05-13T00:19:36Z</time>
      </trkpt>
      <trkpt lat="47.85871" lon="5.22451">
        <time>2015-05-13T00:19:38Z</time>
      </trkpt>
      <trkpt lat="47.85881" lon="5.22431">
        <time>2015-05-13T00:19:40Z</time>
      </trkpt>
      <trkpt lat="47.85916" lon="5.22378">
        <time>2015-05-13T00:19:45Z</time>
      </trkpt>
      <trkpt lat="47.85974" lon="5.22308">
        <time>2015-05-13T00:19:54Z</time>
      </trkpt>
      <trkpt lat="47.86016" lon="5.22262">
        <time>2015-05-13T00:20:00Z</time>
      </trkpt>
      <trkpt lat="47.86028" lon="5.22245">
        <time>2015-05-13T00:20:02Z</time>
      </trkpt>
      <trkpt lat="47.86038" lon="5.22223">
        <time>2015-05-13T00:20:04Z</time>
      </trkpt>
      <trkpt lat="47.86046" lon="5.22194">
        <time>2015-05-13T00:20:06Z</time>
      </trkpt>
      <trkpt lat="47.86067" lon="5.2209">
        <time>2015-05-13T00:20:15Z</time>
      </trkpt>
      <trkpt lat="47.86067" lon="5.2209">
        <time>2015-05-13T00:20:15Z</time>
      </trkpt>
      <trkpt lat="47.86114" lon="5.21842">
        <time>2015-05-13T00:20:34Z</time>
      </trkpt>
      <trkpt lat="47.86132" lon="5.21754">
        <time>2015-05-13T00:20:41Z</time>
      </trkpt>
      <trkpt lat="47.86131" lon="5.21718">
        <time>2015-05-13T00:20:44Z</time>
      </trkpt>
      <trkpt lat="47.86121" lon="5.21684">
        <time>2015-05-13T00:20:47Z</time>
      </trkpt>
      <trkpt lat="47.86087" lon="5.21622">
        <time>2015-05-13T00:20:53Z</time>
      </trkpt>
      <trkpt lat="47.86074" lon="5.21586">
        <time>2015-05-13T00:20:56Z</time>
      </trkpt>
      <trkpt lat="47.86057" lon="5.21509">
        <time>2015-05-13T00:21:03Z</time>
      </trkpt>
      <trkpt lat="47.86039" lon="5.21421">
        <time>2015-05-13T00:21:10Z</time>
      </trkpt>
      <trkpt lat="47.86037" lon="5.21363">
        <time>2015-05-13T00:21:14Z</time>
      </trkpt>
      <trkpt lat="47.86038" lon="5.21334">
        <time>2015-05-13T00:21:16Z</time>
      </trkpt>
      <trkpt lat="47.86043" lon="5.21304">
        <time>2015-05-13T00:21:19Z</time>
      </trkpt>
      <trkpt lat="47.86055" lon="5.21241">
        <time>2015-05-13T00:21:24Z</time>
      </trkpt>
      <trkpt lat="47.86055" lon="5.212">
        <time>2015-05-13T00:21:27Z</time>
      </trkpt>
      <trkpt lat="47.86047" lon="5.2115">
        <time>2015-05-13T00:21:31Z</time>
      </trkpt>
      <trkpt lat="47.86015" lon="5.21065">
        <time>2015-05-13T00:21:38Z</time>
      </trkpt>
      <trkpt lat="47.85981" lon="5.20981">
        <time>2015-05-13T00:21:46Z</time>
      </trkpt>
      <trkpt lat="47.85921" lon="5.2083">
        <time>2015-05-13T00:21:59Z</time>
      </trkpt>
      <trkpt lat="47.85911" lon="5.20788">
        <time>2015-05-13T00:22:03Z</time>
      </trkpt>
      <trkpt lat="47.85904" lon="5.20744">
        <time>2015-05-13T00:22:06Z</time>
      </trkpt>
      <trkpt lat="47.85903" lon="5.20682">
        <time>2015-05-13T00:22:11Z</time>
      </trkpt>
      <trkpt lat="47.85909" lon="5.20657">
        <time>2015-05-13T00:22:13Z</time>
      </trkpt>
      <trkpt lat="47.85922" lon="5.20618">
        <time>2015-05-13T00:22:16Z</time>
      </trkpt>
      <trkpt lat="47.85939" lon="5.20567">
        <time>2015-05-13T00:22:21Z</time>
      </trkpt>
      <trkpt lat="47.85944" lon="5.20541">
        <time>2015-05-13T00:22:23Z</time>
      </trkpt>
      <trkpt lat="47.85943" lon="5.20446">
        <time>2015-05-13T00:22:30Z</time>
      </trkpt>
      <trkpt lat="47.85959" lon="5.20173">
        <time>2015-05-13T00:22:51Z</time>
      </trkpt>
      <trkpt lat="47.85955" lon="5.20084">
        <time>2015-05-13T00:22:58Z</time>
      </trkpt>
      <trkpt lat="47.85948" lon="5.19983">
        <time>2015-05-13T00:23:06Z</time>
      </trkpt>
      <trkpt lat="47.85937" lon="5.1978">
        <time>2015-05-13T00:23:22Z</time>
      </trkpt>
      <trkpt lat="47.85924" lon="5.19553">
        <time>2015-05-13T00:23:39Z</time>
      </trkpt>
      <trkpt lat="47.8592" lon="5.19494">
        <time>2015-05-13T00:23:44Z</time>
      </trkpt>
      <trkpt lat="47.85912" lon="5.19441">
        <time>2015-05-13T00:23:48Z</time>
      </trkpt>
      <trkpt lat="47.859" lon="5.19351">
        <time>2015-05-13T00:23:55Z</time>
      </trkpt>
      <trkpt lat="47.85896" lon="5.1931">
        <time>2015-05-13T00:23:58Z</time>
      </trkpt>
      <trkpt lat="47.85895" lon="5.19219">
        <time>2015-05-13T00:24:05Z</time>
      </trkpt>
      <trkpt lat="47.85901" lon="5.19167">
        <time>2015-05-13T00:24:09Z</time>
      </trkpt>
      <trkpt lat="47.85909" lon="5.1912">
        <time>2015-05-13T00:24:13Z</time>
      </trkpt>
      <trkpt lat="47.85916" lon="5.19061">
        <time>2015-05-13T00:24:17Z</time>
      </trkpt>
      <trkpt lat="47.85924" lon="5.18912">
        <time>2015-05-13T00:24:29Z</time>
      </trkpt>
      <trkpt lat="47.85926" lon="5.18839">
        <time>2015-05-13T00:24:34Z</time>
      </trkpt>
      <trkpt lat="47.85924" lon="5.1878">
        <time>2015-05-13T00:24:39Z</time>
      </trkpt>
      <trkpt lat="47.85922" lon="5.18652">
        <time>2015-05-13T00:24:49Z</time>
      </trkpt>
      <trkpt lat="47.85917" lon="5.18506">
        <time>2015-05-13T00:25:00Z</time>
      </trkpt>
      <trkpt lat="47.85917" lon="5.18506">
        <time>2015-05-13T00:25:00Z</time>
      </trkpt>
      <trkpt lat="47.85917" lon="5.18487">
        <time>2015-05-13T00:25:02Z</time>
      </trkpt>
      <trkpt lat="47.85922" lon="5.18474">
        <time>2015-05-13T00:25:03Z</time>
      </trkpt>
      <trkpt lat="47.85944" lon="5.18456">
        <time>2015-05-13T00:25:06Z</time>
      </trkpt>
      <trkpt lat="47.85964" lon="5.1843">
        <time>2015-05-13T00:25:09Z</time>
      </trkpt>
      <trkpt lat="47.85968" lon="5.1842">
        <time>2015-05-13T00:25:09Z</time>
      </trkpt>
      <trkpt lat="47.85969" lon="5.1841">
        <time>2015-05-13T00:25:10Z</time>
      </trkpt>
      <trkpt lat="47.85967" lon="5.18396">
        <time>2015-05-13T00:25:11Z</time>
      </trkpt>
      <trkpt lat="47.85957" lon="5.18362">
        <time>2015-05-13T00:25:14Z</time>
      </trkpt>
      <trkpt lat="47.8593" lon="5.18278">
        <time>2015-05-13T00:25:21Z</time>
      </trkpt>
      <trkpt lat="47.85906" lon="5.18197">
        <time>2015-05-13T00:25:28Z</time>
      </trkpt>
      <trkpt lat="47.85899" lon="5.18158">
        <time>2015-05-13T00:25:31Z</time>
      </trkpt>
      <trkpt lat="47.85898" lon="5.18119">
        <time>2015-05-13T00:25:34Z</time>
      </trkpt>
      <trkpt lat="47.85895" lon="5.18099">
        <time>2015-05-13T00:25:36Z</time>
      </trkpt>
      <trkpt lat="47.85885" lon="5.18064">
        <time>2015-05-13T00:25:39Z</time>
      </trkpt>
      <trkpt lat="47.85844" lon="5.17971">
        <time>2015-05-13T00:25:47Z</time>
      </trkpt>
      <trkpt lat="47.8583" lon="5.1795">
        <time>2015-05-13T00:25:50Z</time>
      </trkpt>
      <trkpt lat="47.85812" lon="5.17941">
        <time>2015-05-13T00:25:52Z</time>
      </trkpt>
      <trkpt lat="47.85776" lon="5.17934">
        <time>2015-05-13T00:25:56Z</time>
      </trkpt>
      <trkpt lat="47.85747" lon="5.17923">
        <time>2015-05-13T00:25:59Z</time>
      </trkpt>
      <trkpt lat="47.8572" lon="5.17901">
        <time>2015-05-13T00:26:03Z</time>
      </trkpt>
      <trkpt lat="47.85694" lon="5.17862">
        <time>2015-05-13T00:26:07Z</time>
      </trkpt>
      <trkpt lat="47.85639" lon="5.17759">
        <time>2015-05-13T00:26:17Z</time>
      </trkpt>
      <trkpt lat="47.8553" lon="5.17575">
        <time>2015-05-13T00:26:36Z</time>
      </trkpt>
      <trkpt lat="47.85506" lon="5.1754">
        <time>2015-05-13T00:26:40Z</time>
      </trkpt>
      <trkpt lat="47.85474" lon="5.17501">
        <time>2015-05-13T00:26:45Z</time>
      </trkpt>
      <trkpt lat="47.85411" lon="5.17425">
        <time>2015-05-13T00:26:54Z</time>
      </trkpt>
      <trkpt lat="47.85358" lon="5.17321">
        <time>2015-05-13T00:27:04Z</time>
      </trkpt>
      <trkpt lat="47.85332" lon="5.17279">
        <time>2015-05-13T00:27:08Z</time>
      </trkpt>
      <trkpt lat="47.853" lon="5.17232">
        <time>2015-05-13T00:27:13Z</time>
      </trkpt>
      <trkpt lat="47.85269" lon="5.17184">
        <time>2015-05-13T00:27:19Z</time>
      </trkpt>
      <trkpt lat="47.85241" lon="5.17127">
        <time>2015-05-13T00:27:24Z</time>
      </trkpt>
      <trkpt lat="47.8522" lon="5.17072">
        <time>2015-05-13T00:27:29Z</time>
      </trkpt>
      <trkpt lat="47.85214" lon="5.1704">
        <time>2015-05-13T00:27:31Z</time>
      </trkpt>
      <trkpt lat="47.85212" lon="5.16998">
        <time>2015-05-13T00:27:35Z</time>
      </trkpt>
      <trkpt lat="47.85214" lon="5.16976">
        <time>2015-05-13T00:27:36Z</time>
      </trkpt>
      <trkpt lat="47.8522" lon="5.16954">
        <time>2015-05-13T00:27:38Z</time>
      </trkpt>
      <trkpt lat="47.8524" lon="5.16879">
        <time>2015-05-13T00:27:44Z</time>
      </trkpt>
      <trkpt lat="47.85245" lon="5.16839">
        <time>2015-05-13T00:27:48Z</time>
      </trkpt>
      <trkpt lat="47.8524" lon="5.16771">
        <time>2015-05-13T00:27:53Z</time>
      </trkpt>
      <trkpt lat="47.85232" lon="5.16709">
        <time>2015-05-13T00:27:58Z</time>
      </trkpt>
      <trkpt lat="47.85226" lon="5.16678">
        <time>2015-05-13T00:28:00Z</time>
      </trkpt>
      <trkpt lat="47.85216" lon="5.16628">
        <time>2015-05-13T00:28:04Z</time>
      </trkpt>
      <trkpt lat="47.85211" lon="5.16588">
        <time>2015-05-13T00:28:07Z</time>
      </trkpt>
      <trkpt lat="47.85216" lon="5.1658">
        <time>2015-05-13T00:28:08Z</time>
      </trkpt>
      <trkpt lat="47.85286" lon="5.16386">
        <time>2015-05-13T00:28:25Z</time>
      </trkpt>
      <trkpt lat="47.85293" lon="5.16368">
        <time>2015-05-13T00:28:27Z</time>
      </trkpt>
      <trkpt lat="47.85293" lon="5.16368">
        <time>2015-05-13T00:28:27Z</time>
      </trkpt>
      <trkpt lat="47.85339" lon="5.16243">
        <time>2015-05-13T00:28:38Z</time>
      </trkpt>
      <trkpt lat="47.8539" lon="5.16118">
        <time>2015-05-13T00:28:49Z</time>
      </trkpt>
      <trkpt lat="47.85405" lon="5.16066">
        <time>2015-05-13T00:28:53Z</time>
      </trkpt>
      <trkpt lat="47.85408" lon="5.16029">
        <time>2015-05-13T00:28:56Z</time>
      </trkpt>
      <trkpt lat="47.85394" lon="5.15918">
        <time>2015-05-13T00:29:05Z</time>
      </trkpt>
      <trkpt lat="47.85373" lon="5.1581">
        <time>2015-05-13T00:29:13Z</time>
      </trkpt>
      <trkpt lat="47.85342" lon="5.15726">
        <time>2015-05-13T00:29:21Z</time>
      </trkpt>
      <trkpt lat="47.85274" lon="5.15562">
        <time>2015-05-13T00:29:36Z</time>
      </trkpt>
      <trkpt lat="47.85252" lon="5.15502">
        <time>2015-05-13T00:29:41Z</time>
      </trkpt>
      <trkpt lat="47.85234" lon="5.15435">
        <time>2015-05-13T00:29:46Z</time>
      </trkpt>
      <trkpt lat="47.85217" lon="5.15358">
        <time>2015-05-13T00:29:53Z</time>
      </trkpt>
      <trkpt lat="47.85212" lon="5.15313">
        <time>2015-05-13T00:29:56Z</time>
      </trkpt>
      <trkpt lat="47.8521" lon="5.15246">
        <time>2015-05-13T00:30:01Z</time>
      </trkpt>
      <trkpt lat="47.85211" lon="5.15196">
        <time>2015-05-13T00:30:05Z</time>
      </trkpt>
      <trkpt lat="47.85215" lon="5.15157">
        <time>2015-05-13T00:30:08Z</time>
      </trkpt>
      <trkpt lat="47.85223" lon="5.1511">
        <time>2015-05-13T00:30:12Z</time>
      </trkpt>
      <trkpt lat="47.85235" lon="5.1506">
        <time>2015-05-13T00:30:16Z</time>
      </trkpt>
      <trkpt lat="47.85242" lon="5.15038">
        <time>2015-05-13T00:30:18Z</time>
      </trkpt>
      <trkpt lat="47.85252" lon="5.1502">
        <time>2015-05-13T00:30:20Z</time>
      </trkpt>
      <trkpt lat="47.85266" lon="5.15004">
        <time>2015-05-13T00:30:22Z</time>
      </trkpt>
      <trkpt lat="47.85279" lon="5.14993">
        <time>2015-05-13T00:30:23Z</time>
      </trkpt>
      <trkpt lat="47.85287" lon="5.14988">
        <time>2015-05-13T00:30:24Z</time>
      </trkpt>
      <trkpt lat="47.85403" lon="5.14953">
        <time>2015-05-13T00:30:38Z</time>
      </trkpt>
      <trkpt lat="47.85446" lon="5.14932">
        <time>2015-05-13T00:30:43Z</time>
      </trkpt>
      <trkpt lat="47.85519" lon="5.14885">
        <time>2015-05-13T00:30:52Z</time>
      </trkpt>
      <trkpt lat="47.85534" lon="5.14879">
        <time>2015-05-13T00:30:54Z</time>
      </trkpt>
      <trkpt lat="47.85556" lon="5.14871">
        <time>2015-05-13T00:30:56Z</time>
      </trkpt>
      <trkpt lat="47.85574" lon="5.14869">
        <time>2015-05-13T00:30:59Z</time>
      </trkpt>
      <trkpt lat="47.85694" lon="5.14844">
        <time>2015-05-13T00:31:12Z</time>
      </trkpt>
      <trkpt lat="47.85721" lon="5.1484">
        <time>2015-05-13T00:31:16Z</time>
      </trkpt>
      <trkpt lat="47.85739" lon="5.14835">
        <time>2015-05-13T00:31:18Z</time>
      </trkpt>
      <trkpt lat="47.85806" lon="5.14806">
        <time>2015-05-13T00:31:26Z</time>
      </trkpt>
      <trkpt lat="47.85868" lon="5.14772">
        <time>2015-05-13T00:31:33Z</time>
      </trkpt>
      <trkpt lat="47.85887" lon="5.14758">
        <time>2015-05-13T00:31:36Z</time>
      </trkpt>
      <trkpt lat="47.85906" lon="5.14735">
        <time>2015-05-13T00:31:38Z</time>
      </trkpt>
      <trkpt lat="47.85914" lon="5.14719">
        <time>2015-05-13T00:31:40Z</time>
      </trkpt>
      <trkpt lat="47.85919" lon="5.14702">
        <time>2015-05-13T00:31:41Z</time>
      </trkpt>
      <trkpt lat="47.85928" lon="5.14642">
        <time>2015-05-13T00:31:46Z</time>
      </trkpt>
      <trkpt lat="47.85928" lon="5.14624">
        <time>2015-05-13T00:31:47Z</time>
      </trkpt>
      <trkpt lat="47.85925" lon="5.14594">
        <time>2015-05-13T00:31:50Z</time>
      </trkpt>
      <trkpt lat="47.8592" lon="5.1458">
        <time>2015-05-13T00:31:51Z</time>
      </trkpt>
      <trkpt lat="47.85915" lon="5.1457">
        <time>2015-05-13T00:31:52Z</time>
      </trkpt>
      <trkpt lat="47.8587" lon="5.14506">
        <time>2015-05-13T00:31:59Z</time>
      </trkpt>
      <trkpt lat="47.85858" lon="5.14495">
        <time>2015-05-13T00:32:01Z</time>
      </trkpt>
      <trkpt lat="47.85844" lon="5.14486">
        <time>2015-05-13T00:32:02Z</time>
      </trkpt>
      <trkpt lat="47.85815" lon="5.14481">
        <time>2015-05-13T00:32:06Z</time>
      </trkpt>
      <trkpt lat="47.85787" lon="5.14474">
        <time>2015-05-13T00:32:09Z</time>
      </trkpt>
      <trkpt lat="47.85774" lon="5.1447">
        <time>2015-05-13T00:32:11Z</time>
      </trkpt>
      <trkpt lat="47.85763" lon="5.1446">
        <time>2015-05-13T00:32:12Z</time>
      </trkpt>
      <trkpt lat="47.85751" lon="5.14442">
        <time>2015-05-13T00:32:14Z</time>
      </trkpt>
      <trkpt lat="47.85746" lon="5.14428">
        <time>2015-05-13T00:32:15Z</time>
      </trkpt>
      <trkpt lat="47.85743" lon="5.14408">
        <time>2015-05-13T00:32:17Z</time>
      </trkpt>
      <trkpt lat="47.85746" lon="5.14363">
        <time>2015-05-13T00:32:20Z</time>
      </trkpt>
      <trkpt lat="47.85754" lon="5.1433">
        <time>2015-05-13T00:32:23Z</time>
      </trkpt>
      <trkpt lat="47.85764" lon="5.14295">
        <time>2015-05-13T00:32:26Z</time>
      </trkpt>
      <trkpt lat="47.85765" lon="5.14274">
        <time>2015-05-13T00:32:28Z</time>
      </trkpt>
      <trkpt lat="47.85763" lon="5.14215">
        <time>2015-05-13T00:32:32Z</time>
      </trkpt>
      <trkpt lat="47.85763" lon="5.14194">
        <time>2015-05-13T00:32:34Z</time>
      </trkpt>
      <trkpt lat="47.85767" lon="5.14172">
        <time>2015-05-13T00:32:35Z</time>
      </trkpt>
      <trkpt lat="47.85776" lon="5.14155">
        <time>2015-05-13T00:32:37Z</time>
      </trkpt>
      <trkpt lat="47.85824" lon="5.14105">
        <time>2015-05-13T00:32:44Z</time>
      </trkpt>
      <trkpt lat="47.85836" lon="5.14084">
        <time>2015-05-13T00:32:46Z</time>
      </trkpt>
      <trkpt lat="47.85842" lon="5.14067">
        <time>2015-05-13T00:32:47Z</time>
      </trkpt>
      <trkpt lat="47.85845" lon="5.14049">
        <time>2015-05-13T00:32:49Z</time>
      </trkpt>
      <trkpt lat="47.85844" lon="5.1403">
        <time>2015-05-13T00:32:50Z</time>
      </trkpt>
      <trkpt lat="47.85836" lon="5.13995">
        <time>2015-05-13T00:32:53Z</time>
      </trkpt>
      <trkpt lat="47.85802" lon="5.13873">
        <time>2015-05-13T00:33:03Z</time>
      </trkpt>
      <trkpt lat="47.8579" lon="5.13807">
        <time>2015-05-13T00:33:09Z</time>
      </trkpt>
      <trkpt lat="47.85781" lon="5.13708">
        <time>2015-05-13T00:33:16Z</time>
      </trkpt>
      <trkpt lat="47.85771" lon="5.13604">
        <time>2015-05-13T00:33:24Z</time>
      </trkpt>
      <trkpt lat="47.85769" lon="5.13546">
        <time>2015-05-13T00:33:29Z</time>
      </trkpt>
      <trkpt lat="47.85772" lon="5.13479">
        <time>2015-05-13T00:33:34Z</time>
      </trkpt>
      <trkpt lat="47.85775" lon="5.13434">
        <time>2015-05-13T00:33:37Z</time>
      </trkpt>
      <trkpt lat="47.85783" lon="5.13367">
        <time>2015-05-13T00:33:43Z</time>
      </trkpt>
      <trkpt lat="47.85789" lon="5.13325">
        <time>2015-05-13T00:33:46Z</time>
      </trkpt>
      <trkpt lat="47.85796" lon="5.133">
        <time>2015-05-13T00:33:48Z</time>
      </trkpt>
      <trkpt lat="47.85801" lon="5.1326">
        <time>2015-05-13T00:33:51Z</time>
      </trkpt>
      <trkpt lat="47.85805" lon="5.13224">
        <time>2015-05-13T00:33:54Z</time>
      </trkpt>
      <trkpt lat="47.85805" lon="5.1317">
        <time>2015-05-13T00:33:58Z</time>
      </trkpt>
      <trkpt lat="47.85807" lon="5.13121">
        <time>2015-05-13T00:34:02Z</time>
      </trkpt>
      <trkpt lat="47.85812" lon="5.13079">
        <time>2015-05-13T00:34:05Z</time>
      </trkpt>
      <trkpt lat="47.85826" lon="5.12976">
        <time>2015-05-13T00:34:13Z</time>
      </trkpt>
      <trkpt lat="47.85839" lon="5.12898">
        <time>2015-05-13T00:34:19Z</time>
      </trkpt>
      <trkpt lat="47.85848" lon="5.12866">
        <time>2015-05-13T00:34:22Z</time>
      </trkpt>
      <trkpt lat="47.8587" lon="5.12816">
        <time>2015-05-13T00:34:27Z</time>
      </trkpt>
      <trkpt lat="47.859" lon="5.1275">
        <time>2015-05-13T00:34:33Z</time>
      </trkpt>
      <trkpt lat="47.8593" lon="5.12692">
        <time>2015-05-13T00:34:38Z</time>
      </trkpt>
      <trkpt lat="47.8594" lon="5.12667">
        <time>2015-05-13T00:34:41Z</time>
      </trkpt>
      <trkpt lat="47.85943" lon="5.12636">
        <time>2015-05-13T00:34:43Z</time>
      </trkpt>
      <trkpt lat="47.85939" lon="5.12562">
        <time>2015-05-13T00:34:49Z</time>
      </trkpt>
      <trkpt lat="47.85927" lon="5.12466">
        <time>2015-05-13T00:34:56Z</time>
      </trkpt>
      <trkpt lat="47.85903" lon="5.12351">
        <time>2015-05-13T00:35:05Z</time>
      </trkpt>
      <trkpt lat="47.85897" lon="5.12298">
        <time>2015-05-13T00:35:10Z</time>
      </trkpt>
      <trkpt lat="47.859" lon="5.12261">
        <time>2015-05-13T00:35:12Z</time>
      </trkpt>
      <trkpt lat="47.85921" lon="5.122">
        <time>2015-05-13T00:35:18Z</time>
      </trkpt>
      <trkpt lat="47.85954" lon="5.12115">
        <time>2015-05-13T00:35:25Z</time>
      </trkpt>
      <trkpt lat="47.85965" lon="5.12084">
        <time>2015-05-13T00:35:28Z</time>
      </trkpt>
      <trkpt lat="47.85969" lon="5.12065">
        <time>2015-05-13T00:35:29Z</time>
      </trkpt>
      <trkpt lat="47.85969" lon="5.12031">
        <time>2015-05-13T00:35:32Z</time>
      </trkpt>
      <trkpt lat="47.85964" lon="5.11999">
        <time>2015-05-13T00:35:35Z</time>
      </trkpt>
      <trkpt lat="47.85942" lon="5.11928">
        <time>2015-05-13T00:35:41Z</time>
      </trkpt>
      <trkpt lat="47.85939" lon="5.11888">
        <time>2015-05-13T00:35:44Z</time>
      </trkpt>
      <trkpt lat="47.85941" lon="5.11864">
        <time>2015-05-13T00:35:46Z</time>
      </trkpt>
      <trkpt lat="47.85948" lon="5.11822">
        <time>2015-05-13T00:35:49Z</time>
      </trkpt>
      <trkpt lat="47.85949" lon="5.11815">
        <time>2015-05-13T00:35:49Z</time>
      </trkpt>
      <trkpt lat="47.85949" lon="5.11815">
        <time>2015-05-13T00:35:49Z</time>
      </trkpt>
      <trkpt lat="47.85957" lon="5.11766">
        <time>2015-05-13T00:35:53Z</time>
      </trkpt>
      <trkpt lat="47.85965" lon="5.11741">
        <time>2015-05-13T00:35:55Z</time>
      </trkpt>
      <trkpt lat="47.85976" lon="5.11722">
        <time>2015-05-13T00:35:57Z</time>
      </trkpt>
      <trkpt lat="47.85998" lon="5.11694">
        <time>2015-05-13T00:36:01Z</time>
      </trkpt>
      <trkpt lat="47.86015" lon="5.1167">
        <time>2015-05-13T00:36:03Z</time>
      </trkpt>
      <trkpt lat="47.86028" lon="5.11645">
        <time>2015-05-13T00:36:06Z</time>
      </trkpt>
      <trkpt lat="47.8609" lon="5.11553">
        <time>2015-05-13T00:36:16Z</time>
      </trkpt>
      <trkpt lat="47.86129" lon="5.11499">
        <time>2015-05-13T00:36:22Z</time>
      </trkpt>
      <trkpt lat="47.86187" lon="5.11414">
        <time>2015-05-13T00:36:31Z</time>
      </trkpt>
      <trkpt lat="47.86221" lon="5.11375">
        <time>2015-05-13T00:36:36Z</time>
      </trkpt>
      <trkpt lat="47.86237" lon="5.11361">
        <time>2015-05-13T00:36:38Z</time>
      </trkpt>
      <trkpt lat="47.86231" lon="5.11306">
        <time>2015-05-13T00:36:43Z</time>
      </trkpt>
      <trkpt lat="47.86261" lon="5.11295">
        <time>2015-05-13T00:36:46Z</time>
      </trkpt>
      <trkpt lat="47.86401" lon="5.11233">
        <time>2015-05-13T00:37:03Z</time>
      </trkpt>
      <trkpt lat="47.8647" lon="5.11202">
        <time>2015-05-13T00:37:11Z</time>
      </trkpt>
      <trkpt lat="47.8651" lon="5.11181">
        <time>2015-05-13T00:37:16Z</time>
      </trkpt>
      <trkpt lat="47.86644" lon="5.1108">
        <time>2015-05-13T00:37:33Z</time>
      </trkpt>
      <trkpt lat="47.86869" lon="5.10902">
        <time>2015-05-13T00:38:02Z</time>
      </trkpt>
      <trkpt lat="47.87386" lon="5.10518">
        <time>2015-05-13T00:39:08Z</time>
      </trkpt>
      <trkpt lat="47.87539" lon="5.10406">
        <time>2015-05-13T00:39:28Z</time>
      </trkpt>
      <trkpt lat="47.87595" lon="5.10359">
        <time>2015-05-13T00:39:35Z</time>
      </trkpt>
      <trkpt lat="47.87595" lon="5.10359">
        <time>2015-05-13T00:39:35Z</time>
      </trkpt>
      <trkpt lat="47.8762" lon="5.1033">
        <time>2015-05-13T00:39:39Z</time>
      </trkpt>
      <trkpt lat="47.87633" lon="5.1031">
        <time>2015-05-13T00:39:41Z</time>
      </trkpt>
      <trkpt lat="47.87645" lon="5.10286">
        <time>2015-05-13T00:39:43Z</time>
      </trkpt>
      <trkpt lat="47.87677" lon="5.10204">
        <time>2015-05-13T00:39:51Z</time>
      </trkpt>
      <trkpt lat="47.87718" lon="5.10098">
        <time>2015-05-13T00:40:00Z</time>
      </trkpt>
      <trkpt lat="47.87731" lon="5.10057">
        <time>2015-05-13T00:40:04Z</time>
      </trkpt>
      <trkpt lat="47.87745" lon="5.10004">
        <time>2015-05-13T00:40:08Z</time>
      </trkpt>
      <trkpt lat="47.87779" lon="5.09846">
        <time>2015-05-13T00:40:21Z</time>
      </trkpt>
      <trkpt lat="47.87792" lon="5.09792">
        <time>2015-05-13T00:40:25Z</time>
      </trkpt>
      <trkpt lat="47.87802" lon="5.09772">
        <time>2015-05-13T00:40:27Z</time>
      </trkpt>
      <trkpt lat="47.87823" lon="5.09747">
        <time>2015-05-13T00:40:30Z</time>
      </trkpt>
      <trkpt lat="47.87867" lon="5.09707">
        <time>2015-05-13T00:40:36Z</time>
      </trkpt>
      <trkpt lat="47.87898" lon="5.09688">
        <time>2015-05-13T00:40:40Z</time>
      </trkpt>
      <trkpt lat="47.87932" lon="5.09674">
        <time>2015-05-13T00:40:44Z</time>
      </trkpt>
      <trkpt lat="47.87947" lon="5.0967">
        <time>2015-05-13T00:40:46Z</time>
      </trkpt>
      <trkpt lat="47.8798" lon="5.09664">
        <time>2015-05-13T00:40:49Z</time>
      </trkpt>
      <trkpt lat="47.88028" lon="5.09662">
        <time>2015-05-13T00:40:55Z</time>
      </trkpt>
      <trkpt lat="47.88085" lon="5.0966">
        <time>2015-05-13T00:41:01Z</time>
      </trkpt>
      <trkpt lat="47.88114" lon="5.09654">
        <time>2015-05-13T00:41:05Z</time>
      </trkpt>
      <trkpt lat="47.88192" lon="5.09631">
        <time>2015-05-13T00:41:14Z</time>
      </trkpt>
      <trkpt lat="47.8823" lon="5.09622">
        <time>2015-05-13T00:41:18Z</time>
      </trkpt>
      <trkpt lat="47.8825" lon="5.09615">
        <time>2015-05-13T00:41:21Z</time>
      </trkpt>
      <trkpt lat="47.88272" lon="5.09602">
        <time>2015-05-13T00:41:23Z</time>
      </trkpt>
      <trkpt lat="47.88296" lon="5.09583">
        <time>2015-05-13T00:41:26Z</time>
      </trkpt>
      <trkpt lat="47.88305" lon="5.09568">
        <time>2015-05-13T00:41:28Z</time>
      </trkpt>
      <trkpt lat="47.88317" lon="5.09538">
        <time>2015-05-13T00:41:31Z</time>
      </trkpt>
      <trkpt lat="47.88327" lon="5.0952">
        <time>2015-05-13T00:41:32Z</time>
      </trkpt>
      <trkpt lat="47.88332" lon="5.09512">
        <time>2015-05-13T00:41:33Z</time>
      </trkpt>
      <trkpt lat="47.8839" lon="5.09403">
        <time>2015-05-13T00:41:44Z</time>
      </trkpt>
      <trkpt lat="47.88452" lon="5.09286">
        <time>2015-05-13T00:41:55Z</time>
      </trkpt>
      <trkpt lat="47.88484" lon="5.09226">
        <time>2015-05-13T00:42:01Z</time>
      </trkpt>
      <trkpt lat="47.88518" lon="5.0918">
        <time>2015-05-13T00:42:07Z</time>
      </trkpt>
      <trkpt lat="47.88565" lon="5.09124">
        <time>2015-05-13T00:42:13Z</time>
      </trkpt>
      <trkpt lat="47.88639" lon="5.09054">
        <time>2015-05-13T00:42:23Z</time>
      </trkpt>
      <trkpt lat="47.88689" lon="5.0901">
        <time>2015-05-13T00:42:30Z</time>
      </trkpt>
      <trkpt lat="47.88716" lon="5.08991">
        <time>2015-05-13T00:42:34Z</time>
      </trkpt>
      <trkpt lat="47.88728" lon="5.08968">
        <time>2015-05-13T00:42:36Z</time>
      </trkpt>
      <trkpt lat="47.88759" lon="5.08923">
        <time>2015-05-13T00:42:41Z</time>
      </trkpt>
      <trkpt lat="47.88786" lon="5.08891">
        <time>2015-05-13T00:42:45Z</time>
      </trkpt>
      <trkpt lat="47.88838" lon="5.08838">
        <time>2015-05-13T00:42:52Z</time>
      </trkpt>
      <trkpt lat="47.88857" lon="5.08822">
        <time>2015-05-13T00:42:54Z</time>
      </trkpt>
      <trkpt lat="47.88877" lon="5.08805">
        <time>2015-05-13T00:42:57Z</time>
      </trkpt>
      <trkpt lat="47.88898" lon="5.08793">
        <time>2015-05-13T00:43:00Z</time>
      </trkpt>
      <trkpt lat="47.88937" lon="5.0878">
        <time>2015-05-13T00:43:04Z</time>
      </trkpt>
      <trkpt lat="47.8896" lon="5.08778">
        <time>2015-05-13T00:43:07Z</time>
      </trkpt>
      <trkpt lat="47.88984" lon="5.0878">
        <time>2015-05-13T00:43:10Z</time>
      </trkpt>
      <trkpt lat="47.89052" lon="5.08788">
        <time>2015-05-13T00:43:17Z</time>
      </trkpt>
      <trkpt lat="47.89088" lon="5.08796">
        <time>2015-05-13T00:43:22Z</time>
      </trkpt>
      <trkpt lat="47.89121" lon="5.08799">
        <time>2015-05-13T00:43:25Z</time>
      </trkpt>
      <trkpt lat="47.89152" lon="5.08798">
        <time>2015-05-13T00:43:29Z</time>
      </trkpt>
      <trkpt lat="47.89187" lon="5.08786">
        <time>2015-05-13T00:43:33Z</time>
      </trkpt>
      <trkpt lat="47.89284" lon="5.08734">
        <time>2015-05-13T00:43:45Z</time>
      </trkpt>
      <trkpt lat="47.89355" lon="5.08691">
        <time>2015-05-13T00:43:54Z</time>
      </trkpt>
      <trkpt lat="47.89384" lon="5.08667">
        <time>2015-05-13T00:43:57Z</time>
      </trkpt>
      <trkpt lat="47.89409" lon="5.08642">
        <time>2015-05-13T00:44:01Z</time>
      </trkpt>
      <trkpt lat="47.89426" lon="5.08617">
        <time>2015-05-13T00:44:04Z</time>
      </trkpt>
      <trkpt lat="47.89452" lon="5.08547">
        <time>2015-05-13T00:44:10Z</time>
      </trkpt>
      <trkpt lat="47.89508" lon="5.08362">
        <time>2015-05-13T00:44:25Z</time>
      </trkpt>
      <trkpt lat="47.89521" lon="5.08326">
        <time>2015-05-13T00:44:28Z</time>
      </trkpt>
      <trkpt lat="47.89537" lon="5.08295">
        <time>2015-05-13T00:44:31Z</time>
      </trkpt>
      <trkpt lat="47.89555" lon="5.08266">
        <time>2015-05-13T00:44:34Z</time>
      </trkpt>
      <trkpt lat="47.89608" lon="5.08182">
        <time>2015-05-13T00:44:43Z</time>
      </trkpt>
      <trkpt lat="47.89647" lon="5.08111">
        <time>2015-05-13T00:44:50Z</time>
      </trkpt>
      <trkpt lat="47.89678" lon="5.08051">
        <time>2015-05-13T00:44:56Z</time>
      </trkpt>
      <trkpt lat="47.89678" lon="5.08051">
        <time>2015-05-13T00:44:56Z</time>
      </trkpt>
      <trkpt lat="47.89759" lon="5.07903">
        <time>2015-05-13T00:45:11Z</time>
      </trkpt>
      <trkpt lat="47.89824" lon="5.0778">
        <time>2015-05-13T00:45:23Z</time>
      </trkpt>
      <trkpt lat="47.89844" lon="5.07752">
        <time>2015-05-13T00:45:26Z</time>
      </trkpt>
      <trkpt lat="47.89874" lon="5.07722">
        <time>2015-05-13T00:45:30Z</time>
      </trkpt>
      <trkpt lat="47.89903" lon="5.07697">
        <time>2015-05-13T00:45:34Z</time>
      </trkpt>
      <trkpt lat="47.89936" lon="5.07673">
        <time>2015-05-13T00:45:38Z</time>
      </trkpt>
      <trkpt lat="47.90029" lon="5.07632">
        <time>2015-05-13T00:45:49Z</time>
      </trkpt>
      <trkpt lat="47.90104" lon="5.07604">
        <time>2015-05-13T00:45:58Z</time>
      </trkpt>
      <trkpt lat="47.90136" lon="5.07585">
        <time>2015-05-13T00:46:02Z</time>
      </trkpt>
      <trkpt lat="47.90146" lon="5.07574">
        <time>2015-05-13T00:46:04Z</time>
      </trkpt>
      <trkpt lat="47.90157" lon="5.07555">
        <time>2015-05-13T00:46:05Z</time>
      </trkpt>
      <trkpt lat="47.90194" lon="5.07491">
        <time>2015-05-13T00:46:12Z</time>
      </trkpt>
      <trkpt lat="47.90319" lon="5.07262">
        <time>2015-05-13T00:46:35Z</time>
      </trkpt>
      <trkpt lat="47.90389" lon="5.07132">
        <time>2015-05-13T00:46:47Z</time>
      </trkpt>
      <trkpt lat="47.9044" lon="5.07042">
        <time>2015-05-13T00:46:56Z</time>
      </trkpt>
      <trkpt lat="47.90458" lon="5.07015">
        <time>2015-05-13T00:46:59Z</time>
      </trkpt>
      <trkpt lat="47.90486" lon="5.06985">
        <time>2015-05-13T00:47:03Z</time>
      </trkpt>
      <trkpt lat="47.90525" lon="5.06951">
        <time>2015-05-13T00:47:08Z</time>
      </trkpt>
      <trkpt lat="47.90578" lon="5.06901">
        <time>2015-05-13T00:47:16Z</time>
      </trkpt>
      <trkpt lat="47.906" lon="5.0689">
        <time>2015-05-13T00:47:18Z</time>
      </trkpt>
      <trkpt lat="47.9061" lon="5.06891">
        <time>2015-05-13T00:47:19Z</time>
      </trkpt>
      <trkpt lat="47.90618" lon="5.06888">
        <time>2015-05-13T00:47:20Z</time>
      </trkpt>
      <trkpt lat="47.90625" lon="5.06872">
        <time>2015-05-13T00:47:22Z</time>
      </trkpt>
      <trkpt lat="47.9065" lon="5.06803">
        <time>2015-05-13T00:47:28Z</time>
      </trkpt>
      <trkpt lat="47.90671" lon="5.0675">
        <time>2015-05-13T00:47:33Z</time>
      </trkpt>
      <trkpt lat="47.90694" lon="5.06712">
        <time>2015-05-13T00:47:37Z</time>
      </trkpt>
      <trkpt lat="47.9071" lon="5.06694">
        <time>2015-05-13T00:47:39Z</time>
      </trkpt>
      <trkpt lat="47.90725" lon="5.06682">
        <time>2015-05-13T00:47:41Z</time>
      </trkpt>
      <trkpt lat="47.90774" lon="5.06648">
        <time>2015-05-13T00:47:47Z</time>
      </trkpt>
      <trkpt lat="47.90792" lon="5.06633">
        <time>2015-05-13T00:47:49Z</time>
      </trkpt>
      <trkpt lat="47.90811" lon="5.06612">
        <time>2015-05-13T00:47:52Z</time>
      </trkpt>
      <trkpt lat="47.90863" lon="5.06559">
        <time>2015-05-13T00:47:59Z</time>
      </trkpt>
      <trkpt lat="47.90894" lon="5.06534">
        <time>2015-05-13T00:48:03Z</time>
      </trkpt>
      <trkpt lat="47.90912" lon="5.06523">
        <time>2015-05-13T00:48:06Z</time>
      </trkpt>
      <trkpt lat="47.90928" lon="5.06518">
        <time>2015-05-13T00:48:07Z</time>
      </trkpt>
      <trkpt lat="47.90958" lon="5.06508">
        <time>2015-05-13T00:48:11Z</time>
      </trkpt>
      <trkpt lat="47.90975" lon="5.06506">
        <time>2015-05-13T00:48:13Z</time>
      </trkpt>
      <trkpt lat="47.90996" lon="5.06512">
        <time>2015-05-13T00:48:15Z</time>
      </trkpt>
      <trkpt lat="47.91024" lon="5.06535">
        <time>2015-05-13T00:48:19Z</time>
      </trkpt>
      <trkpt lat="47.91082" lon="5.06588">
        <time>2015-05-13T00:48:27Z</time>
      </trkpt>
      <trkpt lat="47.91102" lon="5.06609">
        <time>2015-05-13T00:48:30Z</time>
      </trkpt>
      <trkpt lat="47.91131" lon="5.06627">
        <time>2015-05-13T00:48:33Z</time>
      </trkpt>
      <trkpt lat="47.91186" lon="5.06662">
        <time>2015-05-13T00:48:40Z</time>
      </trkpt>
      <trkpt lat="47.91204" lon="5.06666">
        <time>2015-05-13T00:48:42Z</time>
      </trkpt>
      <trkpt lat="47.91224" lon="5.06663">
        <time>2015-05-13T00:48:44Z</time>
      </trkpt>
      <trkpt lat="47.91239" lon="5.06654">
        <time>2015-05-13T00:48:46Z</time>
      </trkpt>
      <trkpt lat="47.91291" lon="5.06594">
        <time>2015-05-13T00:48:54Z</time>
      </trkpt>
      <trkpt lat="47.91331" lon="5.06553">
        <time>2015-05-13T00:48:59Z</time>
      </trkpt>
      <trkpt lat="47.914" lon="5.06476">
        <time>2015-05-13T00:49:09Z</time>
      </trkpt>
      <trkpt lat="47.91539" lon="5.06319">
        <time>2015-05-13T00:49:29Z</time>
      </trkpt>
      <trkpt lat="47.91552" lon="5.06305">
        <time>2015-05-13T00:49:31Z</time>
      </trkpt>
      <trkpt lat="47.91552" lon="5.06305">
        <time>2015-05-13T00:49:31Z</time>
      </trkpt>
      <trkpt lat="47.91723" lon="5.06112">
        <time>2015-05-13T00:49:56Z</time>
      </trkpt>
      <trkpt lat="47.91748" lon="5.06084">
        <time>2015-05-13T00:49:59Z</time>
      </trkpt>
      <trkpt lat="47.91788" lon="5.06031">
        <time>2015-05-13T00:50:05Z</time>
      </trkpt>
      <trkpt lat="47.91851" lon="5.05937">
        <time>2015-05-13T00:50:15Z</time>
      </trkpt>
      <trkpt lat="47.91888" lon="5.05878">
        <time>2015-05-13T00:50:22Z</time>
      </trkpt>
      <trkpt lat="47.91915" lon="5.05826">
        <time>2015-05-13T00:50:27Z</time>
      </trkpt>
      <trkpt lat="47.9202" lon="5.05592">
        <time>2015-05-13T00:50:48Z</time>
      </trkpt>
      <trkpt lat="47.92126" lon="5.05354">
        <time>2015-05-13T00:51:10Z</time>
      </trkpt>
      <trkpt lat="47.92279" lon="5.05008">
        <time>2015-05-13T00:51:42Z</time>
      </trkpt>
      <trkpt lat="47.92393" lon="5.0475">
        <time>2015-05-13T00:52:06Z</time>
      </trkpt>
      <trkpt lat="47.92458" lon="5.04602">
        <time>2015-05-13T00:52:19Z</time>
      </trkpt>
      <trkpt lat="47.92511" lon="5.04508">
        <time>2015-05-13T00:52:29Z</time>
      </trkpt>
      <trkpt lat="47.92555" lon="5.04442">
        <time>2015-05-13T00:52:36Z</time>
      </trkpt>
      <trkpt lat="47.92575" lon="5.04421">
        <time>2015-05-13T00:52:39Z</time>
      </trkpt>
      <trkpt lat="47.9262" lon="5.04387">
        <time>2015-05-13T00:52:44Z</time>
      </trkpt>
      <trkpt lat="47.92732" lon="5.04313">
        <time>2015-05-13T00:52:59Z</time>
      </trkpt>
      <trkpt lat="47.92779" lon="5.04279">
        <time>2015-05-13T00:53:04Z</time>
      </trkpt>
      <trkpt lat="47.92789" lon="5.04269">
        <time>2015-05-13T00:53:06Z</time>
      </trkpt>
      <trkpt lat="47.92808" lon="5.04233">
        <time>2015-05-13T00:53:09Z</time>
      </trkpt>
      <trkpt lat="47.92847" lon="5.04122">
        <time>2015-05-13T00:53:19Z</time>
      </trkpt>
      <trkpt lat="47.92912" lon="5.03927">
        <time>2015-05-13T00:53:36Z</time>
      </trkpt>
      <trkpt lat="47.9293" lon="5.03852">
        <time>2015-05-13T00:53:42Z</time>
      </trkpt>
      <trkpt lat="47.9294" lon="5.0378">
        <time>2015-05-13T00:53:47Z</time>
      </trkpt>
      <trkpt lat="47.92945" lon="5.0374">
        <time>2015-05-13T00:53:51Z</time>
      </trkpt>
      <trkpt lat="47.92944" lon="5.03619">
        <time>2015-05-13T00:54:00Z</time>
      </trkpt>
      <trkpt lat="47.92948" lon="5.03561">
        <time>2015-05-13T00:54:04Z</time>
      </trkpt>
      <trkpt lat="47.92961" lon="5.0347">
        <time>2015-05-13T00:54:11Z</time>
      </trkpt>
      <trkpt lat="47.92969" lon="5.03413">
        <time>2015-05-13T00:54:16Z</time>
      </trkpt>
      <trkpt lat="47.92985" lon="5.03319">
        <time>2015-05-13T00:54:23Z</time>
      </trkpt>
      <trkpt lat="47.93006" lon="5.03204">
        <time>2015-05-13T00:54:33Z</time>
      </trkpt>
      <trkpt lat="47.93029" lon="5.03117">
        <time>2015-05-13T00:54:40Z</time>
      </trkpt>
      <trkpt lat="47.93057" lon="5.03012">
        <time>2015-05-13T00:54:48Z</time>
      </trkpt>
      <trkpt lat="47.93087" lon="5.02927">
        <time>2015-05-13T00:54:56Z</time>
      </trkpt>
      <trkpt lat="47.931" lon="5.02887">
        <time>2015-05-13T00:54:59Z</time>
      </trkpt>
      <trkpt lat="47.93115" lon="5.02851">
        <time>2015-05-13T00:55:02Z</time>
      </trkpt>
      <trkpt lat="47.93139" lon="5.02794">
        <time>2015-05-13T00:55:08Z</time>
      </trkpt>
      <trkpt lat="47.93165" lon="5.02742">
        <time>2015-05-13T00:55:13Z</time>
      </trkpt>
      <trkpt lat="47.93196" lon="5.02705">
        <time>2015-05-13T00:55:17Z</time>
      </trkpt>
      <trkpt lat="47.93217" lon="5.02674">
        <time>2015-05-13T00:55:20Z</time>
      </trkpt>
      <trkpt lat="47.93232" lon="5.02639">
        <time>2015-05-13T00:55:24Z</time>
      </trkpt>
      <trkpt lat="47.93251" lon="5.02572">
        <time>2015-05-13T00:55:29Z</time>
      </trkpt>
      <trkpt lat="47.93269" lon="5.02527">
        <time>2015-05-13T00:55:33Z</time>
      </trkpt>
      <trkpt lat="47.93294" lon="5.02475">
        <time>2015-05-13T00:55:38Z</time>
      </trkpt>
      <trkpt lat="47.93326" lon="5.02433">
        <time>2015-05-13T00:55:43Z</time>
      </trkpt>
      <trkpt lat="47.93397" lon="5.02349">
        <time>2015-05-13T00:55:53Z</time>
      </trkpt>
      <trkpt lat="47.93476" lon="5.02274">
        <time>2015-05-13T00:56:04Z</time>
      </trkpt>
      <trkpt lat="47.93512" lon="5.02242">
        <time>2015-05-13T00:56:09Z</time>
      </trkpt>
      <trkpt lat="47.9354" lon="5.02223">
        <time>2015-05-13T00:56:12Z</time>
      </trkpt>
      <trkpt lat="47.93589" lon="5.0218">
        <time>2015-05-13T00:56:19Z</time>
      </trkpt>
      <trkpt lat="47.93612" lon="5.0216">
        <time>2015-05-13T00:56:22Z</time>
      </trkpt>
      <trkpt lat="47.93633" lon="5.02132">
        <time>2015-05-13T00:56:25Z</time>
      </trkpt>
      <trkpt lat="47.93645" lon="5.0212">
        <time>2015-05-13T00:56:27Z</time>
      </trkpt>
      <trkpt lat="47.93657" lon="5.02098">
        <time>2015-05-13T00:56:29Z</time>
      </trkpt>
      <trkpt lat="47.93687" lon="5.02029">
        <time>2015-05-13T00:56:35Z</time>
      </trkpt>
      <trkpt lat="47.93716" lon="5.01959">
        <time>2015-05-13T00:56:42Z</time>
      </trkpt>
      <trkpt lat="47.93747" lon="5.01854">
        <time>2015-05-13T00:56:51Z</time>
      </trkpt>
      <trkpt lat="47.93766" lon="5.01733">
        <time>2015-05-13T00:57:00Z</time>
      </trkpt>
      <trkpt lat="47.93777" lon="5.01642">
        <time>2015-05-13T00:57:07Z</time>
      </trkpt>
      <trkpt lat="47.93786" lon="5.01574">
        <time>2015-05-13T00:57:12Z</time>
      </trkpt>
      <trkpt lat="47.93794" lon="5.01544">
        <time>2015-05-13T00:57:15Z</time>
      </trkpt>
      <trkpt lat="47.93803" lon="5.01519">
        <time>2015-05-13T00:57:17Z</time>
      </trkpt>
      <trkpt lat="47.93821" lon="5.01485">
        <time>2015-05-13T00:57:20Z</time>
      </trkpt>
      <trkpt lat="47.93856" lon="5.01413">
        <time>2015-05-13T00:57:27Z</time>
      </trkpt>
      <trkpt lat="47.93896" lon="5.01329">
        <time>2015-05-13T00:57:35Z</time>
      </trkpt>
      <trkpt lat="47.93944" lon="5.01223">
        <time>2015-05-13T00:57:45Z</time>
      </trkpt>
      <trkpt lat="47.93969" lon="5.01181">
        <time>2015-05-13T00:57:49Z</time>
      </trkpt>
      <trkpt lat="47.93969" lon="5.01181">
        <time>2015-05-13T00:57:49Z</time>
      </trkpt>
      <trkpt lat="47.94026" lon="5.01092">
        <time>2015-05-13T00:57:59Z</time>
      </trkpt>
      <trkpt lat="47.94053" lon="5.01058">
        <time>2015-05-13T00:58:03Z</time>
      </trkpt>
      <trkpt lat="47.94097" lon="5.01024">
        <time>2015-05-13T00:58:08Z</time>
      </trkpt>
      <trkpt lat="47.94149" lon="5.00992">
        <time>2015-05-13T00:58:15Z</time>
      </trkpt>
      <trkpt lat="47.94165" lon="5.00984">
        <time>2015-05-13T00:58:17Z</time>
      </trkpt>
      <trkpt lat="47.94185" lon="5.00979">
        <time>2015-05-13T00:58:19Z</time>
      </trkpt>
      <trkpt lat="47.94208" lon="5.00976">
        <time>2015-05-13T00:58:22Z</time>
      </trkpt>
      <trkpt lat="47.94307" lon="5.0097">
        <time>2015-05-13T00:58:33Z</time>
      </trkpt>
      <trkpt lat="47.94452" lon="5.00976">
        <time>2015-05-13T00:58:50Z</time>
      </trkpt>
      <trkpt lat="47.9456" lon="5.00994">
        <time>2015-05-13T00:59:02Z</time>
      </trkpt>
      <trkpt lat="47.9458" lon="5.01001">
        <time>2015-05-13T00:59:05Z</time>
      </trkpt>
      <trkpt lat="47.94614" lon="5.01024">
        <time>2015-05-13T00:59:09Z</time>
      </trkpt>
      <trkpt lat="47.94632" lon="5.01033">
        <time>2015-05-13T00:59:11Z</time>
      </trkpt>
      <trkpt lat="47.94654" lon="5.01036">
        <time>2015-05-13T00:59:14Z</time>
      </trkpt>
      <trkpt lat="47.94702" lon="5.01039">
        <time>2015-05-13T00:59:19Z</time>
      </trkpt>
      <trkpt lat="47.94739" lon="5.01039">
        <time>2015-05-13T00:59:23Z</time>
      </trkpt>
      <trkpt lat="47.94806" lon="5.01052">
        <time>2015-05-13T00:59:31Z</time>
      </trkpt>
      <trkpt lat="47.94806" lon="5.01052">
        <time>2015-05-13T00:59:31Z</time>
      </trkpt>
      <trkpt lat="47.94809" lon="5.01053">
        <time>2015-05-13T00:59:31Z</time>
      </trkpt>
      <trkpt lat="47.94811" lon="5.01037">
        <time>2015-05-13T00:59:33Z</time>
      </trkpt>
      <trkpt lat="47.9482" lon="5.00953">
        <time>2015-05-13T00:59:39Z</time>
      </trkpt>
      <trkpt lat="47.94826" lon="5.00926">
        <time>2015-05-13T00:59:41Z</time>
      </trkpt>
      <trkpt lat="47.94834" lon="5.00895">
        <time>2015-05-13T00:59:44Z</time>
      </trkpt>
      <trkpt lat="47.94867" lon="5.00822">
        <time>2015-05-13T00:59:51Z</time>
      </trkpt>
      <trkpt lat="47.94821" lon="5.00783">
        <time>2015-05-13T00:59:57Z</time>
      </trkpt>
    </trkseg>
  </trk>
</gpx>

